Aérodrome :
LOGIN :

S'inscrire | Disclaimer

   EN    FR    IT 

 










Légende :    VFR   VFR Marginal   IFR   IFR Intensif   IFR Très Intensif
Visi : 
Plafond : 
>= 8 km
>= 3000ft
5 à 8 km
1000 à 3000 ft
1500m à 5 km
500 à 1000 ft
800 à 1500m
200 à 500 ft
< 800m
< 200 ft
Symboles :   Orages  Brouillard  Fortes neiges  Fortes précipitations  Vent > 20 kt
SIGMETs :   Divers  Orages  Givrage  Turbulence  Onde Orograph.  Cendres Volcan.






- Altitude de l'aérodrome : 171 ft
- Code IATA : EGC


LFBE - Bergerac

DERNIER METAR :
  • 171730Z AUTO VRB03KT CAVOK 04/01 Q1029 NOSIG

METARs EXPIRÉS :
  • 171700Z AUTO 33002KT CAVOK 06/02 Q1029 NOSIG
  • 171630Z AUTO 01004KT 9999 SCT039 08/01 Q1029 NOSIG
  • 171600Z AUTO 34007KT 310V010 9999 BKN042 09/02 Q1028 NOSIG
  • 171530Z AUTO 34007KT 9999 BKN042 09/02 Q1028 NOSIG
  • 171500Z AUTO 34009KT 300V010 9999 BKN040 09/02 Q1028 NOSIG

TAF TAF LFBE
Valide du 17 à 18h jusqu'au 18 à 18h UTC


171700Z 1718/1818 VRB03KT 9999 SCT030
PROB40 1722/1803 3000 BR
PROB40 1803/1811 0400 FG VV///
TEMPO 1811/1814 BKN005



MET'MAP, la Météo Aéronautique d'un coup d'oeil ! - Copyright ORBIFLY Décembre 2007 - Disclaimer

ORBIFLY MET'MAP TEAM :

Programmation & Développement : Alexandra Zaïnal
Sur une idée originale de : Baudouin d'Aumeries
Assistance à la programmation : Marc-Olivier Méhu
Soutien technique & logistique : Manuel Goepfert

Contact : metmap@orbifly.com




SOURCES & CREDITS :

   NOAA